Time;durP1;ratioP1;P1;durP2;ratioP2;P2;SDS_P1;SDS_P2;PMS_P1;PMS_P2;Temp;Humidity;BMP_temperature;BMP_pressure;BME280_temperature;BME280_humidity;BME280_pressure;Samples;Min_cycle;Max_cycle;Signal;HPM_P1;HPM_P2
2024/02/17 00:01:32;;;;;;;10.83;7.20;;;;;;;;;;4880408;29;20186;-85
2024/02/17 00:04:37;;;;;;;11.53;6.83;;;;;;;;;;4880025;29;20524;-85
2024/02/17 00:07:41;;;;;;;11.43;6.90;;;;;;;;;;4878695;29;20221;-85
2024/02/17 00:10:45;;;;;;;11.97;7.07;;;;;;;;;;4880203;29;20194;-85
2024/02/17 00:13:51;;;;;;;10.53;7.53;;;;;;;;;;4880064;29;20194;-85
2024/02/17 00:16:55;;;;;;;10.83;7.50;;;;;;;;;;4879181;29;20190;-85
2024/02/17 00:19:59;;;;;;;10.93;7.63;;;;;;;;;;4879020;29;20186;-85
2024/02/17 00:23:04;;;;;;;11.03;8.07;;;;;;;;;;4879852;29;20190;-85
2024/02/17 00:26:08;;;;;;;13.33;7.70;;;;;;;;;;4879011;29;20183;-85
2024/02/17 00:29:12;;;;;;;13.77;8.60;;;;;;;;;;4878972;29;20194;-84
2024/02/17 00:32:16;;;;;;;10.90;8.57;;;;;;;;;;4879220;29;20190;-85
2024/02/17 00:35:20;;;;;;;13.00;9.67;;;;;;;;;;4879697;29;20218;-85
2024/02/17 00:38:25;;;;;;;13.43;9.53;;;;;;;;;;4889342;29;20702;-85
2024/02/17 00:41:29;;;;;;;17.20;9.63;;;;;;;;;;4878957;29;20182;-85
2024/02/17 00:44:34;;;;;;;17.03;9.57;;;;;;;;;;4879063;29;20187;-85
2024/02/17 00:47:38;;;;;;;15.37;9.57;;;;;;;;;;4879352;29;20226;-85
2024/02/17 00:50:42;;;;;;;15.60;9.63;;;;;;;;;;4879232;29;20191;-86
2024/02/17 00:53:47;;;;;;;12.53;8.83;;;;;;;;;;4879103;29;20186;-85
2024/02/17 00:56:51;;;;;;;12.67;9.70;;;;;;;;;;4878301;29;20182;-85
2024/02/17 00:59:55;;;;;;;14.40;9.57;;;;;;;;;;4878941;29;20191;-85
2024/02/17 01:02:59;;;;;;;12.57;9.37;;;;;;;;;;4878442;29;20183;-85
2024/02/17 01:06:04;;;;;;;16.17;10.00;;;;;;;;;;4878875;29;20183;-85
2024/02/17 01:09:07;;;;;;;11.10;9.07;;;;;;;;;;4867376;29;20229;-85
2024/02/17 01:12:12;;;;;;;13.80;9.60;;;;;;;;;;4879076;29;20190;-85
2024/02/17 01:15:17;;;;;;;13.33;8.50;;;;;;;;;;4878065;29;20214;-85
2024/02/17 01:18:21;;;;;;;14.03;9.70;;;;;;;;;;4878106;29;20222;-85
2024/02/17 01:21:26;;;;;;;17.37;10.40;;;;;;;;;;4878130;29;20182;-84
2024/02/17 01:24:30;;;;;;;14.07;10.13;;;;;;;;;;4877988;29;20691;-85
2024/02/17 01:27:34;;;;;;;14.07;10.30;;;;;;;;;;4878560;29;20233;-86
2024/02/17 01:30:38;;;;;;;15.53;10.27;;;;;;;;;;4879019;29;20213;-86
2024/02/17 01:33:42;;;;;;;15.73;10.60;;;;;;;;;;4879339;29;20193;-86
2024/02/17 01:36:47;;;;;;;15.47;10.90;;;;;;;;;;4877648;29;20190;-84
2024/02/17 01:39:51;;;;;;;15.83;11.30;;;;;;;;;;4878788;29;20198;-85
2024/02/17 01:42:55;;;;;;;16.57;10.67;;;;;;;;;;4877743;29;20205;-85
2024/02/17 01:45:59;;;;;;;16.27;10.47;;;;;;;;;;4878522;29;20193;-85
2024/02/17 01:49:04;;;;;;;12.90;11.37;;;;;;;;;;4878339;29;20555;-85
2024/02/17 01:52:09;;;;;;;18.47;10.70;;;;;;;;;;4878521;29;20266;-85
2024/02/17 01:55:15;;;;;;;13.67;11.30;;;;;;;;;;4877914;29;20217;-85
2024/02/17 01:58:19;;;;;;;14.90;11.40;;;;;;;;;;4877445;29;20241;-85
2024/02/17 02:01:24;;;;;;;17.50;11.77;;;;;;;;;;4878125;29;20198;-86
2024/02/17 02:04:29;;;;;;;14.80;11.57;;;;;;;;;;4867622;29;20190;-86
2024/02/17 02:07:34;;;;;;;16.03;11.63;;;;;;;;;;4878259;29;20229;-85
2024/02/17 02:10:38;;;;;;;15.53;11.10;;;;;;;;;;4866861;29;20189;-86
2024/02/17 02:13:42;;;;;;;16.97;10.83;;;;;;;;;;4878506;29;20198;-85
2024/02/17 02:16:49;;;;;;;16.30;12.10;;;;;;;;;;4878150;29;20198;-85
2024/02/17 02:19:54;;;;;;;15.30;11.63;;;;;;;;;;4878594;29;20200;-86
2024/02/17 02:22:58;;;;;;;16.37;11.70;;;;;;;;;;4877924;29;20209;-85
2024/02/17 02:26:03;;;;;;;17.77;12.27;;;;;;;;;;4878220;29;20190;-85
2024/02/17 02:29:07;;;;;;;18.13;11.97;;;;;;;;;;4878446;29;20197;-85
2024/02/17 02:32:11;;;;;;;15.87;12.43;;;;;;;;;;4879269;29;20216;-85
2024/02/17 02:35:15;;;;;;;18.73;12.57;;;;;;;;;;4878616;29;20225;-85
2024/02/17 02:38:19;;;;;;;16.87;12.33;;;;;;;;;;4878260;29;20232;-86
2024/02/17 02:41:24;;;;;;;17.60;13.10;;;;;;;;;;4866488;29;20189;-86
2024/02/17 02:44:28;;;;;;;22.13;13.57;;;;;;;;;;4878118;29;20197;-86
2024/02/17 02:47:32;;;;;;;16.07;11.93;;;;;;;;;;4878001;29;20232;-85
2024/02/17 02:50:36;;;;;;;20.17;13.27;;;;;;;;;;4866546;29;20201;-86
2024/02/17 02:53:40;;;;;;;21.60;13.67;;;;;;;;;;4877419;29;20197;-86
2024/02/17 02:56:44;;;;;;;18.93;14.13;;;;;;;;;;4877880;29;20221;-84
2024/02/17 02:59:50;;;;;;;19.37;14.27;;;;;;;;;;4877442;29;20551;-85
2024/02/17 03:02:54;;;;;;;20.57;14.70;;;;;;;;;;4878468;29;20189;-85
2024/02/17 03:05:58;;;;;;;23.93;14.20;;;;;;;;;;4878201;29;20206;-85
2024/02/17 03:09:03;;;;;;;23.03;14.67;;;;;;;;;;4877470;29;20237;-80
2024/02/17 03:12:08;;;;;;;24.50;13.57;;;;;;;;;;4877145;29;20194;-80
2024/02/17 03:15:12;;;;;;;21.47;14.07;;;;;;;;;;4876646;29;20225;-80
2024/02/17 03:18:16;;;;;;;21.10;14.33;;;;;;;;;;4877965;29;20249;-80
2024/02/17 03:21:21;;;;;;;17.63;14.13;;;;;;;;;;4877622;29;20197;-80
2024/02/17 03:24:25;;;;;;;20.03;14.53;;;;;;;;;;4878210;29;20274;-80
2024/02/17 03:27:29;;;;;;;20.93;14.60;;;;;;;;;;4878307;29;20229;-80
2024/02/17 03:30:34;;;;;;;20.90;14.43;;;;;;;;;;4878381;29;20197;-80
2024/02/17 03:33:38;;;;;;;20.20;15.00;;;;;;;;;;4878004;29;20548;-80
2024/02/17 03:36:42;;;;;;;24.90;16.27;;;;;;;;;;4877955;29;20247;-80
2024/02/17 03:39:48;;;;;;;21.33;15.73;;;;;;;;;;4877170;29;20197;-80
2024/02/17 03:42:52;;;;;;;21.57;16.13;;;;;;;;;;4879675;29;20194;-80
2024/02/17 03:45:55;;;;;;;25.23;17.27;;;;;;;;;;4880272;29;20193;-80
2024/02/17 03:48:59;;;;;;;26.30;18.40;;;;;;;;;;4880280;29;20229;-80
2024/02/17 03:52:04;;;;;;;25.87;18.17;;;;;;;;;;4880786;29;20209;-80
2024/02/17 03:55:08;;;;;;;25.00;17.60;;;;;;;;;;4880849;29;20225;-80
2024/02/17 03:58:12;;;;;;;24.80;18.13;;;;;;;;;;4880822;29;20229;-80
2024/02/17 04:01:17;;;;;;;27.37;18.47;;;;;;;;;;4881149;29;20201;-80
2024/02/17 04:04:24;;;;;;;22.20;16.43;;;;;;;;;;4880571;29;20189;-80
2024/02/17 04:07:29;;;;;;;26.00;16.93;;;;;;;;;;4880726;29;20221;-80
2024/02/17 04:10:33;;;;;;;26.70;17.47;;;;;;;;;;4880581;29;20552;-80
2024/02/17 04:13:37;;;;;;;22.23;16.93;;;;;;;;;;4880436;29;20189;-80
2024/02/17 04:16:41;;;;;;;21.00;15.77;;;;;;;;;;4878827;29;20790;-80
2024/02/17 04:19:46;;;;;;;21.80;15.00;;;;;;;;;;4880931;29;20193;-80
2024/02/17 04:22:50;;;;;;;19.90;14.97;;;;;;;;;;4880115;29;20213;-80
2024/02/17 04:25:56;;;;;;;19.90;13.90;;;;;;;;;;4880248;29;20223;-80
2024/02/17 04:29:00;;;;;;;19.30;14.77;;;;;;;;;;4880174;29;20233;-80
2024/02/17 04:32:05;;;;;;;20.03;14.67;;;;;;;;;;4879394;29;20658;-80
2024/02/17 04:35:09;;;;;;;20.73;13.27;;;;;;;;;;4880358;29;20197;-80
2024/02/17 04:38:13;;;;;;;18.27;14.47;;;;;;;;;;4880164;29;20587;-80
2024/02/17 04:41:18;;;;;;;17.00;13.17;;;;;;;;;;4879937;29;20201;-80
2024/02/17 04:44:22;;;;;;;18.43;13.57;;;;;;;;;;4880135;29;20258;-80
2024/02/17 04:47:26;;;;;;;19.93;12.77;;;;;;;;;;4879602;29;20236;-80
2024/02/17 04:50:31;;;;;;;17.63;13.10;;;;;;;;;;4868795;29;20205;-80
2024/02/17 04:53:35;;;;;;;18.20;12.37;;;;;;;;;;4889818;29;20205;-80
2024/02/17 04:56:39;;;;;;;19.97;13.50;;;;;;;;;;4886414;29;20225;-81
2024/02/17 04:59:43;;;;;;;16.80;13.40;;;;;;;;;;4885278;29;20202;-80
2024/02/17 05:02:48;;;;;;;19.20;14.10;;;;;;;;;;4883565;29;20197;-80
2024/02/17 05:05:52;;;;;;;19.50;13.93;;;;;;;;;;4882265;29;20197;-80
2024/02/17 05:08:56;;;;;;;16.97;13.27;;;;;;;;;;4882982;29;20245;-80
2024/02/17 05:12:00;;;;;;;20.63;13.13;;;;;;;;;;4883272;29;20193;-80
2024/02/17 05:15:04;;;;;;;15.67;12.57;;;;;;;;;;4883751;29;20675;-80
2024/02/17 05:18:08;;;;;;;17.87;13.90;;;;;;;;;;4882517;29;20229;-80
2024/02/17 05:21:16;;;;;;;20.10;14.23;;;;;;;;;;4883734;29;20197;-80
2024/02/17 05:24:20;;;;;;;18.57;13.93;;;;;;;;;;4882773;29;20198;-80
2024/02/17 05:27:24;;;;;;;22.80;14.53;;;;;;;;;;4882833;29;20229;-80
2024/02/17 05:30:28;;;;;;;18.70;14.73;;;;;;;;;;4884257;29;20197;-79
2024/02/17 05:33:33;;;;;;;21.73;15.20;;;;;;;;;;4885369;29;20540;-79
2024/02/17 05:36:38;;;;;;;20.90;14.97;;;;;;;;;;4887585;29;20290;-81
2024/02/17 05:39:42;;;;;;;23.00;16.40;;;;;;;;;;4885984;29;20675;-79
2024/02/17 05:42:46;;;;;;;22.07;16.43;;;;;;;;;;4887867;29;20193;-79
2024/02/17 05:45:50;;;;;;;23.10;17.73;;;;;;;;;;4887726;29;20198;-79
2024/02/17 05:48:55;;;;;;;26.07;18.00;;;;;;;;;;4888410;29;20228;-79
2024/02/17 05:51:59;;;;;;;24.97;18.70;;;;;;;;;;4887288;29;20213;-79
2024/02/17 05:55:03;;;;;;;22.90;17.83;;;;;;;;;;4886562;29;20189;-80
2024/02/17 05:58:07;;;;;;;24.60;17.80;;;;;;;;;;4886030;29;20245;-80
2024/02/17 06:01:11;;;;;;;22.43;17.37;;;;;;;;;;4886451;29;20209;-79
2024/02/17 06:04:16;;;;;;;24.80;17.50;;;;;;;;;;4885911;29;20201;-79
2024/02/17 06:07:20;;;;;;;25.27;17.37;;;;;;;;;;4884522;29;20228;-80
2024/02/17 06:10:25;;;;;;;21.43;17.20;;;;;;;;;;4885230;29;20229;-79
2024/02/17 06:13:29;;;;;;;23.40;16.13;;;;;;;;;;4886215;29;20205;-79
2024/02/17 06:16:33;;;;;;;18.57;14.63;;;;;;;;;;4885606;29;20217;-79
2024/02/17 06:23:03;;;;;;;15.90;13.07;;;;;;;;;;4885121;29;20194;-79
2024/02/17 06:26:21;;;;;;;13.73;11.73;;;;;;;;;;4884857;29;20194;-79
2024/02/17 06:29:24;;;;;;;16.90;11.73;;;;;;;;;;4885176;29;20190;-80
2024/02/17 06:32:29;;;;;;;14.63;11.30;;;;;;;;;;4884613;29;20205;-80
2024/02/17 06:35:33;;;;;;;16.50;10.23;;;;;;;;;;4883835;29;20670;-80
2024/02/17 06:38:38;;;;;;;13.27;10.37;;;;;;;;;;4872207;29;20241;-81
2024/02/17 06:41:42;;;;;;;12.20;9.43;;;;;;;;;;4882345;29;20193;-81
2024/02/17 06:44:46;;;;;;;11.53;9.27;;;;;;;;;;4882238;29;20202;-81
2024/02/17 06:47:50;;;;;;;12.17;9.33;;;;;;;;;;4871524;29;20234;-81
2024/02/17 06:50:55;;;;;;;12.70;9.77;;;;;;;;;;4882201;29;20557;-81
2024/02/17 06:53:59;;;;;;;13.70;9.33;;;;;;;;;;4882015;29;20186;-81
2024/02/17 06:57:04;;;;;;;13.33;8.80;;;;;;;;;;4883086;29;20318;-81
2024/02/17 07:00:09;;;;;;;13.27;8.77;;;;;;;;;;4881553;29;20203;-81
2024/02/17 07:03:12;;;;;;;68.00;35.83;;;;;;;;;;4881164;29;20203;-81
2024/02/17 07:06:18;;;;;;;24.47;14.90;;;;;;;;;;4881528;29;20197;-81
2024/02/17 07:09:24;;;;;;;20.13;13.10;;;;;;;;;;4880364;29;20213;-82
2024/02/17 07:12:31;;;;;;;14.00;10.57;;;;;;;;;;4890707;29;20189;-81
2024/02/17 07:15:36;;;;;;;15.57;9.73;;;;;;;;;;4880848;29;20194;-81
2024/02/17 07:18:42;;;;;;;13.77;9.03;;;;;;;;;;4871879;29;20229;-81
2024/02/17 07:21:46;;;;;;;17.53;11.33;;;;;;;;;;4884050;29;20624;-81
2024/02/17 07:24:51;;;;;;;41.60;23.37;;;;;;;;;;4871915;29;20201;-81
2024/02/17 07:27:58;;;;;;;17.83;13.60;;;;;;;;;;4883510;29;20229;-81
2024/02/17 07:31:03;;;;;;;10.67;7.57;;;;;;;;;;4882857;29;20197;-82
2024/02/17 07:34:09;;;;;;;11.70;7.60;;;;;;;;;;4873091;29;20667;-80
2024/02/17 07:37:12;;;;;;;11.47;7.70;;;;;;;;;;4882851;29;20245;-80
2024/02/17 07:40:20;;;;;;;10.80;6.80;;;;;;;;;;4882766;29;20178;-81
2024/02/17 07:43:24;;;;;;;10.83;7.33;;;;;;;;;;4882008;29;20529;-81
2024/02/17 07:46:28;;;;;;;11.77;7.23;;;;;;;;;;4883994;29;20203;-79
2024/02/17 07:49:33;;;;;;;8.53;6.30;;;;;;;;;;4883273;29;20552;-79
2024/02/17 07:52:37;;;;;;;11.90;8.13;;;;;;;;;;4882163;29;20195;-79
2024/02/17 07:55:42;;;;;;;12.97;7.23;;;;;;;;;;4882637;29;20658;-79
2024/02/17 07:58:46;;;;;;;12.30;7.43;;;;;;;;;;4881119;29;20221;-80
2024/02/17 08:01:50;;;;;;;11.03;7.90;;;;;;;;;;4882334;29;20203;-80
2024/02/17 08:04:56;;;;;;;13.43;8.10;;;;;;;;;;4882211;29;20202;-80
2024/02/17 08:08:00;;;;;;;11.13;7.30;;;;;;;;;;4882680;29;20226;-80
2024/02/17 08:11:08;;;;;;;13.97;8.90;;;;;;;;;;4882000;29;20194;-80
2024/02/17 08:14:15;;;;;;;11.37;7.80;;;;;;;;;;4882940;29;20187;-80
2024/02/17 08:17:20;;;;;;;12.77;8.47;;;;;;;;;;4893311;29;20244;-81
2024/02/17 08:20:24;;;;;;;16.37;10.33;;;;;;;;;;4883410;29;20205;-81
2024/02/17 08:23:28;;;;;;;14.40;8.87;;;;;;;;;;4894397;29;20198;-81
2024/02/17 08:26:33;;;;;;;17.50;9.90;;;;;;;;;;4883604;29;20196;-80
2024/02/17 08:29:37;;;;;;;14.90;8.57;;;;;;;;;;4894252;29;20187;-79
2024/02/17 08:32:41;;;;;;;13.90;9.07;;;;;;;;;;4882244;29;20190;-80
2024/02/17 08:35:46;;;;;;;15.33;8.43;;;;;;;;;;4881426;29;20194;-80
2024/02/17 08:38:49;;;;;;;12.63;8.33;;;;;;;;;;4881290;29;20227;-79
2024/02/17 08:41:55;;;;;;;14.17;9.07;;;;;;;;;;4882065;29;20195;-79
2024/02/17 08:44:59;;;;;;;13.37;8.70;;;;;;;;;;4881465;29;20183;-80
2024/02/17 08:48:04;;;;;;;11.83;8.03;;;;;;;;;;4881872;29;20214;-80
2024/02/17 08:51:08;;;;;;;15.90;9.13;;;;;;;;;;4881975;29;20198;-80
2024/02/17 08:54:16;;;;;;;12.50;8.10;;;;;;;;;;4882370;29;20200;-80
2024/02/17 08:57:20;;;;;;;14.90;8.73;;;;;;;;;;4881631;29;20233;-81
2024/02/17 09:00:25;;;;;;;14.20;9.33;;;;;;;;;;4880616;29;20179;-80
2024/02/17 09:03:30;;;;;;;13.07;8.97;;;;;;;;;;4880952;29;20663;-80
2024/02/17 09:06:34;;;;;;;11.93;8.20;;;;;;;;;;4869450;29;20198;-80
2024/02/17 09:09:39;;;;;;;12.90;8.13;;;;;;;;;;4881394;29;20226;-82
2024/02/17 09:12:43;;;;;;;11.80;7.97;;;;;;;;;;4881462;29;20194;-82
2024/02/17 09:15:48;;;;;;;11.53;8.03;;;;;;;;;;4881053;29;20559;-82
2024/02/17 09:18:52;;;;;;;12.97;8.60;;;;;;;;;;4881395;29;20226;-82
2024/02/17 09:21:56;;;;;;;12.27;7.97;;;;;;;;;;4882536;29;20198;-82
2024/02/17 09:25:00;;;;;;;10.93;7.40;;;;;;;;;;4882347;29;20186;-82
2024/02/17 09:28:06;;;;;;;10.77;6.80;;;;;;;;;;4881450;29;20217;-82
2024/02/17 09:31:11;;;;;;;9.37;7.00;;;;;;;;;;4881051;29;20194;-82
2024/02/17 09:34:15;;;;;;;10.70;7.47;;;;;;;;;;4869083;29;20533;-82
2024/02/17 09:37:19;;;;;;;9.30;6.07;;;;;;;;;;4880696;29;20234;-80
2024/02/17 09:40:23;;;;;;;9.27;6.03;;;;;;;;;;4880414;29;20187;-80
2024/02/17 09:43:28;;;;;;;7.90;5.37;;;;;;;;;;4881157;29;20187;-80
2024/02/17 09:46:32;;;;;;;6.40;4.80;;;;;;;;;;4881249;29;20178;-80
2024/02/17 09:49:38;;;;;;;5.77;4.57;;;;;;;;;;4880995;29;20190;-80
2024/02/17 09:52:46;;;;;;;5.63;4.40;;;;;;;;;;4881593;29;20182;-80
2024/02/17 09:55:50;;;;;;;4.43;3.87;;;;;;;;;;4884164;29;20194;-80
2024/02/17 09:58:54;;;;;;;5.63;3.37;;;;;;;;;;4882629;29;20229;-79
2024/02/17 10:01:59;;;;;;;4.97;3.77;;;;;;;;;;4882942;29;20190;-80
2024/02/17 10:05:04;;;;;;;4.63;3.87;;;;;;;;;;4881489;29;20186;-79
2024/02/17 10:08:08;;;;;;;6.07;4.37;;;;;;;;;;4880219;29;20218;-79
2024/02/17 10:11:13;;;;;;;5.20;3.97;;;;;;;;;;4881353;29;20190;-79
2024/02/17 10:14:22;;;;;;;4.43;3.40;;;;;;;;;;4881437;29;20182;-79
2024/02/17 10:17:26;;;;;;;4.17;3.70;;;;;;;;;;4880387;29;20241;-79
2024/02/17 10:20:31;;;;;;;4.67;3.20;;;;;;;;;;4881997;29;20182;-79
2024/02/17 10:23:35;;;;;;;5.77;3.53;;;;;;;;;;4881255;29;20182;-79
2024/02/17 10:26:41;;;;;;;3.77;3.00;;;;;;;;;;4881218;29;20182;-79
2024/02/17 10:29:48;;;;;;;4.47;3.73;;;;;;;;;;4881936;29;20178;-82
2024/02/17 10:32:51;;;;;;;4.43;3.50;;;;;;;;;;4879942;29;20182;-83
2024/02/17 10:35:58;;;;;;;5.50;4.03;;;;;;;;;;4879973;29;20529;-83
2024/02/17 10:39:03;;;;;;;4.93;3.80;;;;;;;;;;4880090;29;20237;-83
2024/02/17 10:42:07;;;;;;;5.97;3.67;;;;;;;;;;4868821;29;20190;-81
2024/02/17 10:45:11;;;;;;;7.43;5.47;;;;;;;;;;4880523;29;20198;-80
2024/02/17 10:48:18;;;;;;;6.60;3.87;;;;;;;;;;4879496;29;20214;-79
2024/02/17 10:51:23;;;;;;;5.67;4.13;;;;;;;;;;4894806;29;20685;-80
2024/02/17 10:54:37;;;;;;;6.90;4.23;;;;;;;;;;4897615;29;20193;-79
2024/02/17 10:57:54;;;;;;;6.03;4.20;;;;;;;;;;4866389;29;20231;-79
2024/02/17 11:00:59;;;;;;;6.70;3.83;;;;;;;;;;4864573;29;20191;-80
2024/02/17 11:04:04;;;;;;;4.90;3.57;;;;;;;;;;4868099;29;20187;-81
2024/02/17 11:07:10;;;;;;;5.80;4.30;;;;;;;;;;4893862;29;20225;-83
2024/02/17 11:10:15;;;;;;;4.50;3.83;;;;;;;;;;4900344;29;20214;-81
2024/02/17 11:13:24;;;;;;;4.03;3.17;;;;;;;;;;4901624;29;20216;-81
2024/02/17 11:16:35;;;;;;;4.93;3.60;;;;;;;;;;4901158;29;20193;-83
2024/02/17 11:19:39;;;;;;;4.67;3.50;;;;;;;;;;4901904;29;20182;-82
2024/02/17 11:22:52;;;;;;;4.53;3.37;;;;;;;;;;4901849;29;20524;-83
2024/02/17 11:25:56;;;;;;;4.53;3.70;;;;;;;;;;4902078;29;20647;-82
2024/02/17 11:29:02;;;;;;;6.77;4.20;;;;;;;;;;4902523;29;20222;-82
2024/02/17 11:32:07;;;;;;;4.37;3.80;;;;;;;;;;4903000;29;20182;-83
2024/02/17 11:35:14;;;;;;;3.97;3.33;;;;;;;;;;4900154;29;20567;-83
2024/02/17 11:38:24;;;;;;;6.30;3.90;;;;;;;;;;4901303;29;20686;-83
2024/02/17 11:41:28;;;;;;;4.93;3.80;;;;;;;;;;4902552;29;20182;-84
2024/02/17 11:44:32;;;;;;;4.27;3.77;;;;;;;;;;4902315;29;20185;-84
2024/02/17 11:47:36;;;;;;;6.80;4.87;;;;;;;;;;4900793;29;20213;-84
2024/02/17 11:50:40;;;;;;;4.90;4.40;;;;;;;;;;4901425;29;20186;-83
2024/02/17 11:53:46;;;;;;;4.33;3.70;;;;;;;;;;4901473;29;20182;-82
2024/02/17 11:56:50;;;;;;;5.20;4.20;;;;;;;;;;4900839;29;20186;-82
2024/02/17 11:59:55;;;;;;;5.60;4.20;;;;;;;;;;4899894;29;20186;-83
2024/02/17 12:02:59;;;;;;;5.93;4.97;;;;;;;;;;4901369;29;20182;-81
2024/02/17 12:06:03;;;;;;;5.97;4.83;;;;;;;;;;4904250;29;20201;-81
2024/02/17 12:09:08;;;;;;;7.67;4.27;;;;;;;;;;4901854;29;20214;-87
2024/02/17 12:12:12;;;;;;;5.80;4.40;;;;;;;;;;4877885;29;20186;-88
2024/02/17 12:15:16;;;;;;;5.13;4.40;;;;;;;;;;4899206;29;20194;-87
2024/02/17 12:18:21;;;;;;;6.27;5.50;;;;;;;;;;4899335;29;20225;-88
2024/02/17 12:21:26;;;;;;;7.53;4.90;;;;;;;;;;4887841;29;20199;-87
2024/02/17 12:24:30;;;;;;;6.23;5.00;;;;;;;;;;4900018;29;20190;-85
2024/02/17 12:27:35;;;;;;;6.70;6.00;;;;;;;;;;4899776;29;20216;-82
2024/02/17 12:30:46;;;;;;;9.77;7.60;;;;;;;;;;4899409;29;20185;-83
2024/02/17 12:33:51;;;;;;;8.63;6.80;;;;;;;;;;4899098;29;20193;-83
2024/02/17 12:36:58;;;;;;;8.17;6.80;;;;;;;;;;4900146;29;20177;-83
2024/02/17 12:40:10;;;;;;;11.13;8.00;;;;;;;;;;4899560;29;20636;-83
2024/02/17 12:43:24;;;;;;;9.60;7.33;;;;;;;;;;4899332;29;20551;-85
2024/02/17 12:46:30;;;;;;;8.10;6.70;;;;;;;;;;4898861;29;20185;-85
2024/02/17 12:49:35;;;;;;;8.33;6.00;;;;;;;;;;4898933;29;20190;-85
2024/02/17 12:52:39;;;;;;;6.27;5.20;;;;;;;;;;4900133;29;20185;-84
2024/02/17 12:55:45;;;;;;;8.53;5.33;;;;;;;;;;4888442;29;20186;-85
2024/02/17 12:58:50;;;;;;;5.93;5.20;;;;;;;;;;4899835;29;20229;-84
2024/02/17 13:01:54;;;;;;;5.63;4.33;;;;;;;;;;4899023;29;20186;-86
2024/02/17 13:04:59;;;;;;;10.30;5.17;;;;;;;;;;4887435;29;20182;-87
2024/02/17 13:08:04;;;;;;;7.03;4.73;;;;;;;;;;4897752;29;20610;-87
2024/02/17 13:11:08;;;;;;;6.73;4.20;;;;;;;;;;4897823;29;20203;-87
2024/02/17 13:14:12;;;;;;;7.33;5.10;;;;;;;;;;4896717;29;20177;-87
2024/02/17 13:17:18;;;;;;;6.73;5.10;;;;;;;;;;4876496;29;20225;-87
2024/02/17 13:20:23;;;;;;;5.67;4.70;;;;;;;;;;4897737;29;20182;-87
2024/02/17 13:23:27;;;;;;;8.07;5.47;;;;;;;;;;4898198;29;20536;-87
2024/02/17 13:26:32;;;;;;;6.47;5.33;;;;;;;;;;4897394;29;20532;-88
2024/02/17 13:29:35;;;;;;;6.80;4.90;;;;;;;;;;4898186;29;20635;-87
2024/02/17 13:33:16;;;;;;;6.90;5.83;;;;;;;;;;4898299;29;20185;-87
2024/02/17 13:36:20;;;;;;;6.87;5.20;;;;;;;;;;4910632;29;20214;-87
2024/02/17 13:39:25;;;;;;;7.93;5.47;;;;;;;;;;4911790;29;20214;-87
2024/02/17 13:42:29;;;;;;;10.30;8.40;;;;;;;;;;4895742;29;20186;-87
2024/02/17 13:45:33;;;;;;;10.97;6.57;;;;;;;;;;4884856;29;20197;-86
2024/02/17 13:48:37;;;;;;;7.50;5.40;;;;;;;;;;4873939;29;20226;-88
2024/02/17 13:51:41;;;;;;;7.67;5.40;;;;;;;;;;4895534;29;20178;-88
2024/02/17 13:54:46;;;;;;;7.83;5.80;;;;;;;;;;4895404;29;20181;-88
2024/02/17 13:57:50;;;;;;;7.53;6.73;;;;;;;;;;4884461;29;20217;-88
2024/02/17 14:00:54;;;;;;;6.37;5.70;;;;;;;;;;4895264;29;20546;-86
2024/02/17 14:03:58;;;;;;;7.50;5.03;;;;;;;;;;4873939;29;20182;-86
2024/02/17 14:07:03;;;;;;;6.13;4.90;;;;;;;;;;4895346;29;20217;-86
2024/02/17 14:10:08;;;;;;;7.00;5.60;;;;;;;;;;4895086;29;20209;-86
2024/02/17 14:13:12;;;;;;;8.37;4.80;;;;;;;;;;4884580;29;20194;-87
2024/02/17 14:16:16;;;;;;;6.57;4.57;;;;;;;;;;4873943;29;20186;-86
2024/02/17 14:19:20;;;;;;;7.37;5.27;;;;;;;;;;4884232;29;20209;-86
2024/02/17 14:22:24;;;;;;;6.37;4.93;;;;;;;;;;4895121;29;20186;-86
2024/02/17 14:25:29;;;;;;;5.87;4.83;;;;;;;;;;4895494;29;20181;-86
2024/02/17 14:28:33;;;;;;;8.07;4.83;;;;;;;;;;4895028;29;20703;-86
2024/02/17 14:31:40;;;;;;;6.87;5.20;;;;;;;;;;4895049;29;20189;-86
2024/02/17 14:34:44;;;;;;;5.57;4.53;;;;;;;;;;4884154;29;20647;-86
2024/02/17 14:37:48;;;;;;;6.63;4.57;;;;;;;;;;4884034;29;20225;-87
2024/02/17 14:40:52;;;;;;;6.50;4.90;;;;;;;;;;4883945;29;20178;-86
2024/02/17 14:43:56;;;;;;;8.00;4.73;;;;;;;;;;4884778;29;20189;-86
2024/02/17 14:47:01;;;;;;;7.87;4.93;;;;;;;;;;4894813;29;20564;-86
2024/02/17 14:50:05;;;;;;;6.53;4.87;;;;;;;;;;4895406;29;20177;-85
2024/02/17 14:53:09;;;;;;;7.97;5.60;;;;;;;;;;4895730;29;20182;-85
2024/02/17 14:56:13;;;;;;;6.47;5.30;;;;;;;;;;4897032;29;20639;-84
2024/02/17 14:59:18;;;;;;;6.97;5.33;;;;;;;;;;4885565;29;20221;-84
2024/02/17 15:02:22;;;;;;;6.87;4.40;;;;;;;;;;4897659;29;20185;-84
2024/02/17 15:05:27;;;;;;;6.73;4.70;;;;;;;;;;4896751;29;20186;-84
2024/02/17 15:08:31;;;;;;;6.10;4.20;;;;;;;;;;4933536;23;20233;-83
2024/02/17 15:11:35;;;;;;;5.20;4.60;;;;;;;;;;4860016;29;20198;-87
2024/02/17 15:14:39;;;;;;;5.87;5.20;;;;;;;;;;4859423;29;20187;-86
2024/02/17 15:17:43;;;;;;;7.13;5.03;;;;;;;;;;4848732;29;20195;-86
2024/02/17 15:20:47;;;;;;;7.13;5.40;;;;;;;;;;4841390;29;20210;-86
2024/02/17 15:23:52;;;;;;;7.63;5.77;;;;;;;;;;4842224;29;20183;-87
2024/02/17 15:26:56;;;;;;;8.63;5.13;;;;;;;;;;4842274;29;20188;-87
2024/02/17 15:30:00;;;;;;;6.43;4.77;;;;;;;;;;4853486;29;20215;-79
2024/02/17 15:33:04;;;;;;;7.03;4.30;;;;;;;;;;4853115;29;20195;-87
2024/02/17 15:36:10;;;;;;;5.50;4.83;;;;;;;;;;4842947;29;20192;-85
2024/02/17 15:39:15;;;;;;;6.67;4.20;;;;;;;;;;4855606;29;20227;-83
2024/02/17 15:42:19;;;;;;;5.77;4.53;;;;;;;;;;4856114;29;20187;-85
2024/02/17 15:45:23;;;;;;;6.20;4.67;;;;;;;;;;4854913;29;20187;-84
2024/02/17 15:48:28;;;;;;;4.57;3.73;;;;;;;;;;4835100;29;20188;-84
2024/02/17 15:51:31;;;;;;;6.67;4.10;;;;;;;;;;4834447;29;20188;-85
2024/02/17 15:54:36;;;;;;;64.60;32.60;;;;;;;;;;4845066;29;20648;-85
2024/02/17 15:57:40;;;;;;;35.07;16.97;;;;;;;;;;4845785;29;20199;-82
2024/02/17 16:00:44;;;;;;;15.13;7.17;;;;;;;;;;4847263;29;20230;-82
2024/02/17 16:03:48;;;;;;;6.87;4.33;;;;;;;;;;4856192;29;20200;-85
2024/02/17 16:06:52;;;;;;;5.57;4.03;;;;;;;;;;4856191;29;20219;-84
2024/02/17 16:09:56;;;;;;;5.60;3.90;;;;;;;;;;4845346;29;20704;-85
2024/02/17 16:13:01;;;;;;;5.90;3.97;;;;;;;;;;4844527;29;20187;-87
2024/02/17 16:16:07;;;;;;;6.70;4.10;;;;;;;;;;4854370;29;20188;-84
2024/02/17 16:19:12;;;;;;;7.37;4.50;;;;;;;;;;4844164;29;20231;-86
2024/02/17 16:22:16;;;;;;;10.67;4.60;;;;;;;;;;4845128;29;20187;-86
2024/02/17 16:25:21;;;;;;;7.43;3.80;;;;;;;;;;4845639;29;20191;-86
2024/02/17 16:28:25;;;;;;;7.63;4.43;;;;;;;;;;4855340;29;20195;-86
2024/02/17 16:31:29;;;;;;;7.37;4.50;;;;;;;;;;4846376;29;20179;-86
2024/02/17 16:34:33;;;;;;;6.37;4.33;;;;;;;;;;4845412;29;20195;-86
2024/02/17 16:37:40;;;;;;;5.87;4.03;;;;;;;;;;4855405;29;20184;-86
2024/02/17 16:40:44;;;;;;;5.63;3.93;;;;;;;;;;4833574;29;20220;-87
2024/02/17 16:43:48;;;;;;;6.97;4.20;;;;;;;;;;4855967;29;20187;-86
2024/02/17 16:46:53;;;;;;;7.97;4.57;;;;;;;;;;4855518;29;20188;-86
2024/02/17 16:49:57;;;;;;;6.40;4.33;;;;;;;;;;4844302;29;20573;-86
2024/02/17 16:53:01;;;;;;;6.17;4.07;;;;;;;;;;4854783;29;20660;-86
2024/02/17 16:56:06;;;;;;;9.57;3.83;;;;;;;;;;4844683;29;20183;-87
2024/02/17 16:59:10;;;;;;;4.87;3.67;;;;;;;;;;4854338;29;20235;-89
2024/02/17 17:02:18;;;;;;;8.57;4.43;;;;;;;;;;4843063;29;20192;-89
2024/02/17 17:05:23;;;;;;;6.63;3.83;;;;;;;;;;4854520;29;20188;-87
2024/02/17 17:08:27;;;;;;;7.27;4.47;;;;;;;;;;4844595;29;20184;-86
2024/02/17 17:11:31;;;;;;;5.53;4.07;;;;;;;;;;4854085;29;20628;-86
2024/02/17 17:14:36;;;;;;;4.63;3.60;;;;;;;;;;4854680;29;20188;-86
2024/02/17 17:17:40;;;;;;;7.50;4.60;;;;;;;;;;4844088;29;20187;-86
2024/02/17 17:20:44;;;;;;;7.07;4.53;;;;;;;;;;4853921;29;20219;-86
2024/02/17 17:23:49;;;;;;;10.83;8.87;;;;;;;;;;4833742;29;20188;-86
2024/02/17 17:26:53;;;;;;;9.87;6.90;;;;;;;;;;4854986;29;20196;-87
2024/02/17 17:29:57;;;;;;;12.00;7.63;;;;;;;;;;4843023;29;20219;-87
2024/02/17 17:33:02;;;;;;;12.33;9.07;;;;;;;;;;4853518;29;20552;-87
2024/02/17 17:36:08;;;;;;;15.83;8.53;;;;;;;;;;4854060;29;20188;-87
2024/02/17 17:39:12;;;;;;;15.10;8.60;;;;;;;;;;4843115;29;20239;-86
2024/02/17 17:42:16;;;;;;;12.63;7.50;;;;;;;;;;4844229;29;20197;-85
2024/02/17 17:45:21;;;;;;;7.57;4.67;;;;;;;;;;4854681;29;20641;-86
2024/02/17 17:48:25;;;;;;;6.60;4.20;;;;;;;;;;4843969;29;20184;-85
2024/02/17 17:51:32;;;;;;;9.03;5.77;;;;;;;;;;4843757;29;20180;-86
2024/02/17 17:54:36;;;;;;;12.03;6.43;;;;;;;;;;4843063;29;20534;-85
2024/02/17 17:57:41;;;;;;;11.13;5.63;;;;;;;;;;4853486;29;20188;-88
2024/02/17 18:00:45;;;;;;;8.60;5.10;;;;;;;;;;4843450;29;20653;-86
2024/02/17 18:03:49;;;;;;;8.83;5.50;;;;;;;;;;4842817;29;20192;-86
2024/02/17 18:06:53;;;;;;;7.30;5.30;;;;;;;;;;4843270;29;20188;-86
2024/02/17 18:09:57;;;;;;;6.87;5.60;;;;;;;;;;4844055;29;20235;-86
2024/02/17 18:13:02;;;;;;;5.93;4.97;;;;;;;;;;4853330;29;20187;-85
2024/02/17 18:16:06;;;;;;;7.20;5.17;;;;;;;;;;4853215;29;20187;-87